createdAt,value
2023-03-11T00:06:25.453Z,77.59
2023-03-11T00:16:32.548Z,77.59
2023-03-11T00:26:39.945Z,77.64
2023-03-11T00:36:47.478Z,77.61
2023-03-11T00:46:54.772Z,77.73
2023-03-11T00:57:01.747Z,77.68
2023-03-11T01:07:11.372Z,78.15
2023-03-11T01:17:18.853Z,78.26
2023-03-11T01:27:26.123Z,77.97
2023-03-11T01:37:34.111Z,78.08
2023-03-11T01:47:38.745Z,78.20
2023-03-11T01:57:47.846Z,78.02
2023-03-11T02:07:56.790Z,77.83
2023-03-11T02:18:06.590Z,77.52
2023-03-11T02:38:28.218Z,77.16
2023-03-11T02:48:35.884Z,77.04
2023-03-11T02:58:43.222Z,77.19
2023-03-11T03:08:50.782Z,77.70
2023-03-11T03:18:57.813Z,78.08
2023-03-11T03:29:05.142Z,78.32
2023-03-11T03:39:12.352Z,78.56
2023-03-11T03:49:19.389Z,78.77
2023-03-11T03:59:26.465Z,79.10
2023-03-11T04:09:33.722Z,79.71
2023-03-11T04:19:41.428Z,80.20
2023-03-11T04:29:48.675Z,80.61
2023-03-11T04:39:56.110Z,80.75
2023-03-11T04:50:04.231Z,80.87
2023-03-11T05:00:13.834Z,81.04
2023-03-11T05:10:22.726Z,81.61
2023-03-11T05:20:32.405Z,82.09
2023-03-11T05:30:38.096Z,82.46
2023-03-11T05:40:45.094Z,82.60
2023-03-11T05:50:52.210Z,82.90
2023-03-11T06:01:00.335Z,83.00
2023-03-11T06:11:09.633Z,83.33
2023-03-11T06:21:16.537Z,83.56
2023-03-11T06:31:22.888Z,83.87
2023-03-11T06:41:28.058Z,83.80
2023-03-11T06:51:35.407Z,83.76
2023-03-11T07:01:42.903Z,84.27
2023-03-11T07:11:49.996Z,84.25
2023-03-11T07:21:57.069Z,84.03
2023-03-11T07:32:04.537Z,83.89
2023-03-11T07:42:10.747Z,83.93
2023-03-11T07:52:17.962Z,83.82
2023-03-11T08:02:25.217Z,83.63
2023-03-11T08:12:32.494Z,83.58
2023-03-11T08:22:55.715Z,83.41
2023-03-11T08:33:05.145Z,83.27
2023-03-11T08:43:15.616Z,83.09
2023-03-11T08:53:22.355Z,82.93
2023-03-11T09:03:27.529Z,83.10
2023-03-11T09:13:34.846Z,83.27
2023-03-11T09:23:44.515Z,83.57
2023-03-11T09:33:55.701Z,84.14
2023-03-11T09:44:05.220Z,84.50
2023-03-11T09:54:10.559Z,84.55
2023-03-11T10:04:23.623Z,84.64
2023-03-11T10:14:40.092Z,85.53
2023-03-11T10:24:55.486Z,86.47
2023-03-11T10:35:05.459Z,86.87
2023-03-11T10:45:15.234Z,87.69
2023-03-11T10:55:22.476Z,88.37
2023-03-11T11:05:29.449Z,88.94
2023-03-11T11:15:39.361Z,89.28
2023-03-11T11:25:57.182Z,89.53
2023-03-11T11:36:06.149Z,89.76
2023-03-11T11:46:13.878Z,89.79
2023-03-11T11:56:21.066Z,89.69
2023-03-11T12:06:26.802Z,89.11
2023-03-11T12:16:36.274Z,88.31
2023-03-11T12:26:48.131Z,88.36
2023-03-11T12:36:58.984Z,88.79
2023-03-11T12:47:05.168Z,88.54
2023-03-11T12:57:35.872Z,88.35
2023-03-11T13:07:47.112Z,87.44
2023-03-11T13:18:02.673Z,86.91
2023-03-11T13:28:20.262Z,86.79
2023-03-11T13:39:07.266Z,86.30
2023-03-11T13:49:21.866Z,86.37
2023-03-11T13:59:31.021Z,86.56
2023-03-11T14:09:38.269Z,86.26
2023-03-11T14:20:04.854Z,86.42
2023-03-11T14:30:21.039Z,86.57
2023-03-11T14:40:29.849Z,86.73
2023-03-11T14:50:38.460Z,86.96
2023-03-11T15:00:43.585Z,87.25
2023-03-11T15:11:24.830Z,87.64
2023-03-11T15:21:32.564Z,88.23
2023-03-11T15:31:40.067Z,88.46
2023-03-11T15:41:47.197Z,88.23
2023-03-11T16:01:59.939Z,88.68
2023-03-11T16:12:12.289Z,88.20
2023-03-11T16:22:16.549Z,87.50
2023-03-11T16:32:24.020Z,87.16
2023-03-11T16:42:31.296Z,86.73
2023-03-11T16:52:38.599Z,86.36
2023-03-11T17:02:46.284Z,86.04
2023-03-11T17:12:53.756Z,86.00
2023-03-11T17:23:01.284Z,85.46
2023-03-11T17:33:08.563Z,85.31
2023-03-11T17:43:15.689Z,85.10
2023-03-11T17:53:22.773Z,85.03
2023-03-11T18:03:29.103Z,84.98
2023-03-11T18:13:37.429Z,84.66
2023-03-11T18:23:45.696Z,84.54
2023-03-11T18:33:54.832Z,84.22
2023-03-11T18:44:02.560Z,83.98
2023-03-11T18:54:11.428Z,84.09
2023-03-11T19:04:18.708Z,83.91
2023-03-11T19:14:25.121Z,83.76
2023-03-11T19:24:32.629Z,83.99
2023-03-11T19:34:38.666Z,84.05
2023-03-11T19:44:46.511Z,84.00
2023-03-11T19:54:53.168Z,84.11
2023-03-11T20:05:00.652Z,84.27
2023-03-11T20:15:05.605Z,84.07
2023-03-11T20:25:13.294Z,84.10
2023-03-11T20:35:18.285Z,84.11
2023-03-11T20:45:25.864Z,84.18
2023-03-11T20:55:33.228Z,83.84
2023-03-11T21:05:41.906Z,83.97
2023-03-11T21:15:49.015Z,83.80
2023-03-11T21:25:59.307Z,83.58
2023-03-11T21:36:08.509Z,83.22
2023-03-11T21:46:17.528Z,83.31
2023-03-11T21:56:23.389Z,83.35
2023-03-11T22:06:31.258Z,83.75
2023-03-11T22:16:38.849Z,83.44
2023-03-11T22:26:46.207Z,83.59
2023-03-11T22:36:53.380Z,83.60
2023-03-11T22:47:00.497Z,83.61
2023-03-11T22:57:07.174Z,83.54
2023-03-11T23:07:14.662Z,83.38
2023-03-11T23:17:21.759Z,83.55
2023-03-11T23:27:29.613Z,83.59
2023-03-11T23:37:39.895Z,83.64
2023-03-11T23:47:46.975Z,83.80
2023-03-11T23:57:53.084Z,83.65
